Time;durP1;ratioP1;P1;durP2;ratioP2;P2;SDS_P1;SDS_P2;PMS_P1;PMS_P2;Temp;Humidity;BMP_temperature;BMP_pressure;BME280_temperature;BME280_humidity;BME280_pressure;Samples;Min_cycle;Max_cycle;Signal;HPM_P1;HPM_P2
2022/07/20 00:00:24;;;;;;;9.25;2.80;;;21.80;99.90;;;;;;6244634;22;20027;-88
2022/07/20 00:02:50;;;;;;;11.90;2.63;;;21.70;99.90;;;;;;6273865;22;19999;-86
2022/07/20 00:05:15;;;;;;;9.82;2.50;;;21.70;99.90;;;;;;6273839;22;20448;-85
2022/07/20 00:07:41;;;;;;;9.45;2.67;;;21.70;99.90;;;;;;6273990;22;20075;-90
2022/07/20 00:12:52;;;;;;;11.80;2.83;;;21.60;99.90;;;;;;6273835;22;20014;-92
2022/07/20 00:15:17;;;;;;;11.45;2.83;;;21.60;99.90;;;;;;6273868;22;20000;-92
2022/07/20 00:17:43;;;;;;;8.60;2.72;;;21.60;99.90;;;;;;6273828;22;20007;-86
2022/07/20 00:20:10;;;;;;;8.98;2.70;;;21.50;99.90;;;;;;6273800;22;20074;-91
2022/07/20 00:22:36;;;;;;;10.77;2.40;;;21.50;99.90;;;;;;6273582;22;20008;-90
2022/07/20 00:25:04;;;;;;;12.75;2.28;;;21.50;99.90;;;;;;6274531;22;20003;-92
2022/07/20 00:27:29;;;;;;;8.70;2.83;;;21.50;99.90;;;;;;6247743;22;20129;-92
2022/07/20 00:29:55;;;;;;;11.25;2.90;;;21.50;99.90;;;;;;6273880;22;20054;-91
2022/07/20 00:32:21;;;;;;;8.00;2.53;;;21.50;99.90;;;;;;6273613;22;19996;-87
2022/07/20 00:34:46;;;;;;;11.50;2.50;;;21.50;99.90;;;;;;6246691;22;20007;-91
2022/07/20 00:37:12;;;;;;;11.32;2.60;;;21.60;99.90;;;;;;6272933;22;20054;-90
2022/07/20 00:39:37;;;;;;;6.47;2.55;;;21.50;99.90;;;;;;6273430;22;20027;-93
2022/07/20 00:42:03;;;;;;;9.63;2.90;;;21.50;99.90;;;;;;6247363;22;20003;-91
2022/07/20 00:44:29;;;;;;;10.20;2.70;;;21.50;99.90;;;;;;6273735;22;20428;-87
2022/07/20 00:46:55;;;;;;;8.20;2.70;;;21.50;99.90;;;;;;6273478;22;20013;-93
2022/07/20 00:49:21;;;;;;;10.55;2.90;;;21.50;99.90;;;;;;6273479;22;20074;-90
2022/07/20 00:51:49;;;;;;;11.85;2.60;;;21.50;99.90;;;;;;6273048;22;20386;-89
2022/07/20 00:54:15;;;;;;;13.55;2.75;;;21.50;99.90;;;;;;6273267;22;19996;-86
2022/07/20 00:56:41;;;;;;;12.32;2.65;;;21.50;99.90;;;;;;6273029;22;20004;-88
2022/07/20 00:59:09;;;;;;;8.95;2.95;;;21.50;99.90;;;;;;6273616;22;20031;-89
2022/07/20 01:01:35;;;;;;;10.88;2.92;;;21.50;99.90;;;;;;6274246;22;20011;-87
2022/07/20 01:04:02;;;;;;;10.65;2.53;;;21.50;99.90;;;;;;6274292;22;20339;-93
2022/07/20 01:06:28;;;;;;;11.88;3.25;;;21.50;99.90;;;;;;6273225;22;20000;-89
2022/07/20 01:08:54;;;;;;;11.80;2.92;;;21.50;99.90;;;;;;6272917;22;19996;-87
2022/07/20 01:11:20;;;;;;;7.13;2.40;;;21.50;99.90;;;;;;6273230;22;19999;-90
2022/07/20 01:13:46;;;;;;;6.32;2.30;;;21.50;99.90;;;;;;6272781;22;20329;-90
2022/07/20 01:16:11;;;;;;;9.35;2.95;;;21.50;99.90;;;;;;6272727;22;20011;-84
2022/07/20 01:18:37;;;;;;;9.63;2.88;;;21.50;99.90;;;;;;6273330;22;20078;-84
2022/07/20 01:21:05;;;;;;;9.27;2.65;;;21.60;99.90;;;;;;6276543;22;20007;-92
2022/07/20 01:23:31;;;;;;;12.15;2.70;;;21.60;99.90;;;;;;6275983;22;20011;-93
2022/07/20 01:25:58;;;;;;;9.48;2.80;;;21.50;99.90;;;;;;6273364;22;20008;-91
2022/07/20 01:28:25;;;;;;;8.63;2.78;;;21.60;99.90;;;;;;6273618;22;20007;-91
2022/07/20 01:30:51;;;;;;;9.63;2.60;;;21.50;99.90;;;;;;6273896;22;20467;-95
2022/07/20 01:33:17;;;;;;;8.55;2.17;;;21.60;99.90;;;;;;6277583;22;19999;-89
2022/07/20 01:35:43;;;;;;;10.70;2.60;;;21.40;99.90;;;;;;6275271;22;20049;-94
2022/07/20 01:38:09;;;;;;;7.70;2.58;;;21.50;99.90;;;;;;6249421;22;20007;-84
2022/07/20 01:40:34;;;;;;;10.00;2.70;;;21.50;99.90;;;;;;6248525;22;20391;-91
2022/07/20 01:43:00;;;;;;;7.78;2.42;;;21.40;99.90;;;;;;6275126;22;20007;-95
2022/07/20 01:45:26;;;;;;;8.88;3.08;;;21.40;99.90;;;;;;6275433;22;20080;-85
2022/07/20 01:47:51;;;;;;;9.07;2.78;;;21.40;99.90;;;;;;6274837;22;20010;-86
2022/07/20 01:50:17;;;;;;;12.75;2.95;;;21.40;99.90;;;;;;6275546;22;20000;-91
2022/07/20 01:52:43;;;;;;;13.63;2.85;;;21.40;99.90;;;;;;6275431;22;20006;-95
2022/07/20 01:55:09;;;;;;;9.05;3.22;;;21.40;99.90;;;;;;6275087;22;20079;-85
2022/07/20 01:57:35;;;;;;;6.85;2.88;;;21.50;99.90;;;;;;6275752;22;20076;-93
2022/07/20 02:00:01;;;;;;;12.60;3.15;;;21.60;99.90;;;;;;6273487;22;20002;-93
2022/07/20 02:02:26;;;;;;;8.70;2.75;;;21.50;99.90;;;;;;6276150;22;20360;-85
2022/07/20 02:04:52;;;;;;;10.35;3.22;;;21.50;99.90;;;;;;6273124;22;20003;-91
2022/07/20 02:07:17;;;;;;;11.25;2.78;;;21.60;99.90;;;;;;6272873;22;19999;-92
2022/07/20 02:09:44;;;;;;;7.43;2.83;;;;;;;;;;6272723;22;20000;-91
2022/07/20 02:12:09;;;;;;;14.15;3.33;;;21.50;99.90;;;;;;6273000;22;20006;-85
2022/07/20 02:14:35;;;;;;;12.70;3.55;;;21.40;99.90;;;;;;6274065;22;20043;-91
2022/07/20 02:17:01;;;;;;;9.82;2.58;;;21.40;99.90;;;;;;6272642;22;20011;-91
2022/07/20 02:19:26;;;;;;;14.77;3.85;;;21.40;99.90;;;;;;6272575;22;20000;-89
2022/07/20 02:21:52;;;;;;;11.23;3.03;;;21.30;99.90;;;;;;6272262;22;20086;-89
2022/07/20 02:24:18;;;;;;;14.00;2.78;;;21.30;99.90;;;;;;6272442;22;19996;-90
2022/07/20 02:26:43;;;;;;;9.57;2.72;;;21.30;99.90;;;;;;6272865;22;20000;-91
2022/07/20 02:29:10;;;;;;;10.98;2.80;;;21.40;99.90;;;;;;6273837;22;20042;-87
2022/07/20 02:31:35;;;;;;;10.77;3.42;;;21.30;99.90;;;;;;6246595;22;20004;-90
2022/07/20 02:34:01;;;;;;;15.43;3.47;;;21.40;99.90;;;;;;6245079;22;20003;-87
2022/07/20 02:36:27;;;;;;;11.82;3.08;;;21.40;99.90;;;;;;6245060;22;20003;-84
2022/07/20 02:38:52;;;;;;;10.52;3.53;;;21.30;99.90;;;;;;6272130;22;20417;-84
2022/07/20 02:41:18;;;;;;;12.82;3.28;;;21.20;99.90;;;;;;6281625;22;19980;-84
2022/07/20 02:43:44;;;;;;;8.13;2.65;;;21.30;99.90;;;;;;6287219;22;20003;-84
2022/07/20 02:46:09;;;;;;;8.82;2.50;;;21.30;99.90;;;;;;6295577;22;20006;-88
2022/07/20 02:48:35;;;;;;;11.82;3.30;;;21.30;99.90;;;;;;6297210;22;20412;-83
2022/07/20 02:51:01;;;;;;;9.80;2.97;;;21.20;99.90;;;;;;6292446;22;20181;-92
2022/07/20 02:53:27;;;;;;;7.75;3.00;;;20.90;99.90;;;;;;6279720;22;20321;-94
2022/07/20 02:55:52;;;;;;;7.55;2.67;;;21.00;99.90;;;;;;6247573;22;20016;-86
2022/07/20 02:58:18;;;;;;;7.03;2.50;;;21.00;99.90;;;;;;6272117;22;20031;-85
2022/07/20 03:00:43;;;;;;;8.35;2.60;;;20.90;99.90;;;;;;6271843;22;19995;-93
2022/07/20 03:03:09;;;;;;;6.40;2.55;;;21.00;99.90;;;;;;6274377;22;20006;-94
2022/07/20 03:05:35;;;;;;;9.27;2.80;;;21.00;99.90;;;;;;6273111;22;20054;-92
2022/07/20 03:08:01;;;;;;;6.43;2.13;;;21.00;99.90;;;;;;6272010;22;20016;-95
2022/07/20 03:10:27;;;;;;;4.82;2.00;;;21.00;99.90;;;;;;6272388;22;20006;-93
2022/07/20 03:12:53;;;;;;;5.85;2.40;;;21.00;99.90;;;;;;6277251;22;20376;-91
2022/07/20 03:15:19;;;;;;;3.80;2.00;;;21.00;99.90;;;;;;6269902;22;20008;-86
2022/07/20 03:17:49;;;;;;;7.53;2.35;;;21.10;99.90;;;;;;6263807;22;20042;-87
2022/07/20 03:20:20;;;;;;;5.72;2.10;;;21.10;99.90;;;;;;6248665;23;20015;-94
2022/07/20 03:22:46;;;;;;;5.93;1.95;;;21.10;99.90;;;;;;6262918;22;20015;-83
2022/07/20 03:25:12;;;;;;;6.15;2.03;;;20.90;99.90;;;;;;6251975;23;20000;-92
2022/07/20 03:27:38;;;;;;;4.28;2.38;;;21.00;99.90;;;;;;6241987;22;20020;-94
2022/07/20 03:30:05;;;;;;;4.80;1.80;;;21.00;99.90;;;;;;6241322;22;20270;-88
2022/07/20 03:32:31;;;;;;;4.85;2.85;;;21.00;99.90;;;;;;6251254;22;19984;-94
2022/07/20 03:34:57;;;;;;;2.33;1.95;;;21.10;99.90;;;;;;6239940;23;19996;-84
2022/07/20 03:37:23;;;;;;;4.68;2.00;;;21.10;99.90;;;;;;6240738;22;20004;-88
2022/07/20 03:39:49;;;;;;;5.68;1.98;;;21.20;99.90;;;;;;6243607;22;20022;-95
2022/07/20 03:42:14;;;;;;;4.28;1.85;;;21.20;99.90;;;;;;6243227;23;20008;-91
2022/07/20 03:44:40;;;;;;;4.75;1.88;;;21.20;99.90;;;;;;6247298;23;20337;-85
2022/07/20 03:47:06;;;;;;;4.03;1.85;;;21.20;99.90;;;;;;6247995;23;20468;-90
2022/07/20 03:49:32;;;;;;;4.10;2.03;;;21.20;99.90;;;;;;6251996;22;20023;-95
2022/07/20 03:51:58;;;;;;;6.25;2.33;;;21.20;99.90;;;;;;6248050;23;20004;-93
2022/07/20 03:54:23;;;;;;;4.93;2.20;;;21.20;99.90;;;;;;6252208;23;20007;-94
2022/07/20 03:56:49;;;;;;;5.97;2.05;;;21.20;99.90;;;;;;6251927;23;20016;-85
2022/07/20 03:59:15;;;;;;;6.47;2.03;;;21.20;99.90;;;;;;6255487;23;19996;-85
2022/07/20 04:01:40;;;;;;;4.47;2.00;;;21.20;99.90;;;;;;6277926;22;20516;-85
2022/07/20 04:04:06;;;;;;;5.05;1.95;;;21.20;99.90;;;;;;6245932;22;20005;-91
2022/07/20 04:06:33;;;;;;;4.15;1.98;;;21.20;99.90;;;;;;6255372;23;19996;-88
2022/07/20 04:08:58;;;;;;;4.28;1.90;;;21.20;99.90;;;;;;6243032;22;20023;-86
2022/07/20 04:11:24;;;;;;;4.65;2.35;;;21.20;99.90;;;;;;6240701;23;20004;-94
2022/07/20 04:13:51;;;;;;;4.68;2.72;;;21.20;99.90;;;;;;6241761;22;20007;-85
2022/07/20 04:16:16;;;;;;;3.78;2.17;;;21.20;99.90;;;;;;6240893;22;20012;-84
2022/07/20 04:18:42;;;;;;;6.00;2.30;;;21.20;99.90;;;;;;6241752;23;20065;-87
2022/07/20 04:21:07;;;;;;;5.30;2.38;;;21.20;99.90;;;;;;6266571;22;20453;-91
2022/07/20 04:23:33;;;;;;;3.33;1.90;;;21.10;99.90;;;;;;6244006;23;20076;-85
2022/07/20 04:25:59;;;;;;;5.53;2.20;;;21.10;99.90;;;;;;6241852;23;20397;-86
2022/07/20 04:28:25;;;;;;;3.92;2.00;;;21.10;99.90;;;;;;6245051;22;20039;-94
2022/07/20 04:30:50;;;;;;;7.75;2.20;;;21.10;99.90;;;;;;6267987;22;20341;-95
2022/07/20 04:33:18;;;;;;;5.15;2.20;;;21.10;99.90;;;;;;6242862;23;20035;-86
2022/07/20 04:35:44;;;;;;;3.00;1.95;;;21.00;99.90;;;;;;6246182;22;19996;-89
2022/07/20 04:38:13;;;;;;;4.75;2.08;;;20.90;99.90;;;;;;6245039;22;20009;-96
2022/07/20 04:40:39;;;;;;;6.72;2.10;;;20.90;99.90;;;;;;6244134;22;20344;-94
2022/07/20 04:43:05;;;;;;;5.07;2.03;;;20.90;99.90;;;;;;6244300;22;20011;-86
2022/07/20 04:45:31;;;;;;;5.57;2.15;;;20.80;99.90;;;;;;6242340;23;20020;-86
2022/07/20 04:47:56;;;;;;;5.75;2.15;;;20.90;99.90;;;;;;6246158;22;20001;-87
2022/07/20 04:50:23;;;;;;;4.05;2.13;;;20.80;99.90;;;;;;6246792;23;20031;-87
2022/07/20 04:52:49;;;;;;;6.07;2.30;;;20.90;99.90;;;;;;6246570;23;20072;-93
2022/07/20 04:55:15;;;;;;;5.13;2.20;;;;;;;;;;6246654;23;20008;-94
2022/07/20 04:57:40;;;;;;;3.47;1.98;;;20.80;99.90;;;;;;6244173;23;20008;-89
2022/07/20 05:00:07;;;;;;;3.75;2.13;;;20.90;99.90;;;;;;6244698;23;20016;-88
2022/07/20 05:02:32;;;;;;;4.75;2.13;;;20.80;99.90;;;;;;6244413;22;20000;-92
2022/07/20 05:04:58;;;;;;;3.72;2.20;;;20.80;99.90;;;;;;6244508;23;20322;-87
2022/07/20 05:07:24;;;;;;;6.20;2.40;;;20.90;99.90;;;;;;6243695;23;20004;-95
2022/07/20 05:09:50;;;;;;;6.78;2.70;;;20.90;99.90;;;;;;6243038;22;19997;-92
2022/07/20 05:12:15;;;;;;;9.98;2.72;;;20.70;99.90;;;;;;6268682;22;20012;-95
2022/07/20 05:14:41;;;;;;;4.60;2.65;;;20.80;99.90;;;;;;6243528;22;20007;-93
2022/07/20 05:17:07;;;;;;;9.00;2.60;;;20.80;99.90;;;;;;6241127;23;20027;-89
2022/07/20 05:19:32;;;;;;;6.60;2.70;;;20.90;99.90;;;;;;6245060;22;20004;-92
2022/07/20 05:21:58;;;;;;;6.18;2.78;;;20.80;99.90;;;;;;6266967;22;20041;-86
2022/07/20 05:24:24;;;;;;;7.80;2.80;;;20.90;99.90;;;;;;6242345;23;20075;-88
2022/07/20 05:26:50;;;;;;;10.20;2.97;;;20.80;99.90;;;;;;6242531;22;20000;-86
2022/07/20 05:29:17;;;;;;;8.90;3.03;;;20.80;99.90;;;;;;6243678;22;20004;-91
2022/07/20 05:31:43;;;;;;;8.10;2.75;;;20.80;99.90;;;;;;6243551;23;20028;-88
2022/07/20 05:34:08;;;;;;;9.23;3.30;;;20.70;99.90;;;;;;6242444;22;19996;-86
2022/07/20 05:36:34;;;;;;;7.55;3.05;;;20.70;99.90;;;;;;6242239;23;20009;-91
2022/07/20 05:39:00;;;;;;;6.70;2.80;;;20.80;99.90;;;;;;6242265;23;20000;-92
2022/07/20 05:41:26;;;;;;;9.07;3.15;;;20.70;99.90;;;;;;6242521;22;20071;-94
2022/07/20 05:43:52;;;;;;;8.45;2.67;;;20.50;99.90;;;;;;6243351;23;20000;-92
2022/07/20 05:46:17;;;;;;;8.88;2.90;;;20.50;99.90;;;;;;6247109;22;20110;-87
2022/07/20 05:48:43;;;;;;;10.73;3.40;;;20.50;99.90;;;;;;6242355;23;20000;-87
2022/07/20 05:51:09;;;;;;;7.75;2.97;;;20.60;99.90;;;;;;6242100;23;20390;-85
2022/07/20 05:53:35;;;;;;;8.35;3.00;;;20.60;99.90;;;;;;6242461;22;20329;-89
2022/07/20 05:56:00;;;;;;;10.02;3.10;;;20.60;99.90;;;;;;6241577;23;20066;-88
2022/07/20 05:58:27;;;;;;;7.05;2.45;;;;;;;;;;6240948;23;20395;-88
2022/07/20 06:00:52;;;;;;;7.00;2.95;;;20.80;99.90;;;;;;6241904;23;20006;-90
2022/07/20 06:03:18;;;;;;;9.50;3.65;;;20.90;99.90;;;;;;6243162;23;20040;-92
2022/07/20 06:05:43;;;;;;;10.85;3.97;;;20.80;99.90;;;;;;6242310;23;20000;-85
2022/07/20 06:08:09;;;;;;;9.10;3.17;;;20.80;99.90;;;;;;6241030;23;20422;-86
2022/07/20 06:10:36;;;;;;;10.20;3.10;;;20.80;99.90;;;;;;6241371;23;20333;-85
2022/07/20 06:13:03;;;;;;;7.45;3.47;;;20.80;99.90;;;;;;6241539;22;20448;-85
2022/07/20 06:15:29;;;;;;;8.27;3.03;;;;;;;;;;6241163;22;20006;-85
2022/07/20 06:17:55;;;;;;;6.95;2.88;;;20.90;99.90;;;;;;6241411;23;20008;-89
2022/07/20 06:20:22;;;;;;;8.80;3.00;;;21.00;99.90;;;;;;6265952;22;20069;-91
2022/07/20 06:22:48;;;;;;;10.02;3.90;;;21.00;99.90;;;;;;6242119;22;20444;-86
2022/07/20 06:25:16;;;;;;;9.90;2.83;;;21.10;99.90;;;;;;6241427;22;20004;-85
2022/07/20 06:27:42;;;;;;;8.20;3.55;;;21.20;99.90;;;;;;6242029;22;20019;-88
2022/07/20 06:30:11;;;;;;;8.60;3.22;;;21.10;99.90;;;;;;6241721;22;19996;-89
2022/07/20 06:32:38;;;;;;;11.07;3.42;;;21.10;99.90;;;;;;6240272;22;20138;-87
2022/07/20 06:35:06;;;;;;;9.27;3.35;;;21.10;99.90;;;;;;6241378;22;20526;-85
2022/07/20 06:37:32;;;;;;;11.27;3.40;;;21.20;99.90;;;;;;6240142;23;20016;-89
2022/07/20 06:39:58;;;;;;;9.07;3.30;;;21.20;99.90;;;;;;6240052;23;20020;-89
2022/07/20 06:42:23;;;;;;;10.70;3.40;;;21.30;99.90;;;;;;6242088;23;20311;-89
2022/07/20 06:44:49;;;;;;;10.38;3.63;;;21.20;99.90;;;;;;6235582;23;19996;-88
2022/07/20 06:47:16;;;;;;;7.97;3.08;;;21.20;99.90;;;;;;6240595;23;20470;-90
2022/07/20 06:49:42;;;;;;;15.30;3.00;;;21.20;99.90;;;;;;6241767;22;20027;-86
2022/07/20 06:52:08;;;;;;;9.85;3.13;;;21.30;99.90;;;;;;6241779;22;20046;-88
2022/07/20 06:54:34;;;;;;;9.10;3.17;;;;;;;;;;6243144;22;20004;-88
2022/07/20 06:57:00;;;;;;;7.95;3.15;;;21.50;99.90;;;;;;6242029;23;20441;-89
2022/07/20 06:59:26;;;;;;;12.18;3.72;;;21.50;99.90;;;;;;6241169;22;20045;-91
2022/07/20 07:01:52;;;;;;;8.70;3.08;;;21.40;99.90;;;;;;6242759;23;20007;-89
2022/07/20 07:04:18;;;;;;;11.02;3.55;;;21.40;99.90;;;;;;6265346;22;20028;-85
2022/07/20 07:06:44;;;;;;;11.10;3.03;;;21.40;99.90;;;;;;6241045;22;20019;-90
2022/07/20 07:09:09;;;;;;;10.27;2.70;;;21.40;99.90;;;;;;6240989;23;20001;-90
2022/07/20 07:11:36;;;;;;;10.57;3.45;;;21.40;99.90;;;;;;6240890;23;20380;-86
2022/07/20 07:14:04;;;;;;;9.50;3.17;;;21.40;99.90;;;;;;6243025;22;20000;-87
2022/07/20 07:16:30;;;;;;;8.85;3.15;;;;;;;;;;6240912;22;20000;-86
2022/07/20 07:18:56;;;;;;;8.55;3.10;;;21.50;99.90;;;;;;6240130;23;20032;-84
2022/07/20 07:21:24;;;;;;;12.18;3.78;;;21.40;99.90;;;;;;6266205;22;20440;-87
2022/07/20 07:23:50;;;;;;;10.55;3.33;;;21.40;99.90;;;;;;6247425;22;20468;-86
2022/07/20 07:26:17;;;;;;;13.75;3.42;;;21.40;99.90;;;;;;6246278;22;20007;-85
2022/07/20 07:28:43;;;;;;;13.07;3.75;;;21.50;99.90;;;;;;6271907;22;19996;-85
2022/07/20 07:31:09;;;;;;;8.02;3.17;;;;;;;;;;6272604;22;20003;-87
2022/07/20 07:33:35;;;;;;;16.20;3.60;;;21.70;99.90;;;;;;6244517;22;20432;-86
2022/07/20 07:36:01;;;;;;;9.73;2.92;;;21.80;99.90;;;;;;6271454;22;19999;-85
2022/07/20 07:38:26;;;;;;;9.45;3.03;;;22.00;99.90;;;;;;6269863;22;20449;-85
2022/07/20 07:40:52;;;;;;;9.32;2.70;;;22.10;99.90;;;;;;6272603;22;20053;-85
2022/07/20 07:43:18;;;;;;;8.95;2.80;;;22.10;99.90;;;;;;6270695;22;20031;-91
2022/07/20 07:45:43;;;;;;;8.15;2.85;;;22.10;99.90;;;;;;6271608;22;20003;-85
2022/07/20 07:48:12;;;;;;;8.07;2.55;;;22.00;99.90;;;;;;6270835;22;20008;-88
2022/07/20 07:50:39;;;;;;;8.18;2.92;;;22.00;99.90;;;;;;6272724;22;20000;-85
2022/07/20 07:53:07;;;;;;;8.90;3.07;;;22.00;99.90;;;;;;6275029;22;20000;-88
2022/07/20 07:55:39;;;;;;;;;;;22.20;99.90;;;;;;6273779;22;20003;-90
2022/07/20 07:58:09;;;;;;;11.10;2.88;;;22.40;99.90;;;;;;6271773;22;19956;-88
2022/07/20 08:00:36;;;;;;;10.15;3.20;;;22.40;99.90;;;;;;6266910;22;20079;-84
2022/07/20 08:03:03;;;;;;;6.78;2.72;;;22.40;99.90;;;;;;6271661;22;20031;-90
2022/07/20 08:05:29;;;;;;;10.77;2.90;;;;;;;;;;6244862;22;20078;-90
2022/07/20 08:07:55;;;;;;;7.57;2.72;;;22.30;99.90;;;;;;6272927;22;20007;-90
2022/07/20 08:10:23;;;;;;;6.68;2.60;;;22.10;99.90;;;;;;6273110;22;20004;-90
2022/07/20 08:12:49;;;;;;;;;;;22.10;99.90;;;;;;6245482;22;20000;-89
2022/07/20 08:15:15;;;;;;;13.05;2.97;;;22.00;99.90;;;;;;6278515;22;19930;-91
2022/07/20 08:17:45;;;;;;;9.63;3.00;;;22.00;99.90;;;;;;6293405;22;20386;-87
2022/07/20 08:20:12;;;;;;;10.55;2.70;;;22.10;99.90;;;;;;6279475;22;20027;-89
2022/07/20 08:22:37;;;;;;;10.60;2.88;;;22.20;99.90;;;;;;6272145;22;20004;-89
2022/07/20 08:25:03;;;;;;;8.15;2.95;;;22.40;99.90;;;;;;6248923;22;20058;-85
2022/07/20 08:27:29;;;;;;;11.48;2.88;;;22.40;99.90;;;;;;6276379;22;20004;-89
2022/07/20 08:29:58;;;;;;;12.07;2.70;;;;;;;;;;6276453;22;20026;-86
2022/07/20 08:32:25;;;;;;;11.70;3.17;;;22.70;99.90;;;;;;6249311;22;20436;-90
2022/07/20 08:34:51;;;;;;;7.73;2.70;;;22.70;99.90;;;;;;6274313;22;19996;-83
2022/07/20 08:37:17;;;;;;;8.90;2.92;;;22.90;99.90;;;;;;6273115;22;20250;-88
2022/07/20 08:39:42;;;;;;;7.13;2.80;;;22.90;99.90;;;;;;6273552;22;20004;-85
2022/07/20 08:42:09;;;;;;;8.70;2.75;;;22.90;99.90;;;;;;6273004;22;20436;-84
2022/07/20 08:44:35;;;;;;;7.95;3.08;;;22.90;99.90;;;;;;6272726;22;20004;-85
2022/07/20 08:47:01;;;;;;;8.27;2.60;;;22.80;99.90;;;;;;6272963;22;20424;-88
2022/07/20 08:49:28;;;;;;;15.38;3.03;;;22.80;99.90;;;;;;6273626;22;20003;-85
2022/07/20 08:51:53;;;;;;;13.02;2.83;;;22.80;99.90;;;;;;6274306;22;20042;-84
2022/07/20 08:54:20;;;;;;;7.90;2.40;;;22.80;99.90;;;;;;6272976;22;20008;-88
2022/07/20 08:56:46;;;;;;;6.63;2.38;;;22.80;99.90;;;;;;6245622;22;20022;-83
2022/07/20 08:59:11;;;;;;;7.97;2.45;;;22.70;99.90;;;;;;6272623;22;20067;-87
2022/07/20 09:01:58;;;;;;;7.25;2.22;;;22.70;99.90;;;;;;6272649;22;20026;-86
2022/07/20 09:04:24;;;;;;;11.23;2.42;;;22.60;99.90;;;;;;6269957;22;20705;-84
2022/07/20 09:06:50;;;;;;;6.15;2.22;;;22.80;99.90;;;;;;6219719;22;20050;-85
2022/07/20 09:09:17;;;;;;;6.88;2.38;;;22.80;99.90;;;;;;6245124;22;20344;-84
2022/07/20 09:11:44;;;;;;;8.98;2.67;;;22.80;99.90;;;;;;6245268;22;20440;-83
2022/07/20 09:14:09;;;;;;;10.63;2.33;;;22.90;99.90;;;;;;6271995;22;20015;-85
2022/07/20 09:16:46;;;;;;;9.18;2.65;;;22.90;99.90;;;;;;6270937;22;20004;-81
2022/07/20 09:19:14;;;;;;;4.87;2.27;;;23.10;99.90;;;;;;6269753;22;20011;-82
2022/07/20 09:21:40;;;;;;;9.10;2.30;;;;;;;;;;6269773;22;20543;-84
2022/07/20 09:24:07;;;;;;;6.40;2.22;;;23.40;99.90;;;;;;6271886;22;20011;-87
2022/07/20 09:26:35;;;;;;;5.80;2.10;;;23.50;99.90;;;;;;6271545;22;20004;-83
2022/07/20 09:29:03;;;;;;;6.70;1.95;;;23.70;99.90;;;;;;6270359;22;19999;-83
2022/07/20 09:31:37;;;;;;;6.25;1.67;;;23.90;99.90;;;;;;6271415;22;20437;-82
2022/07/20 09:34:13;;;;;;;8.13;1.90;;;23.90;99.90;;;;;;6243386;22;20012;-83
2022/07/20 09:36:46;;;;;;;9.10;2.60;;;24.10;99.90;;;;;;6271465;22;20081;-85
2022/07/20 09:39:18;;;;;;;6.00;2.00;;;24.00;99.90;;;;;;6271344;22;19996;-85
2022/07/20 09:41:57;;;;;;;5.40;1.80;;;24.10;99.90;;;;;;6271176;22;20034;-86
2022/07/20 09:44:24;;;;;;;4.80;1.88;;;24.20;99.90;;;;;;6271607;22;20027;-86
2022/07/20 09:46:50;;;;;;;4.68;1.73;;;24.10;99.90;;;;;;6271935;22;20083;-86
2022/07/20 09:49:16;;;;;;;4.80;2.00;;;23.90;99.90;;;;;;6245073;22;20031;-83
2022/07/20 09:51:44;;;;;;;8.20;2.20;;;23.70;99.90;;;;;;6245199;22;20436;-86
2022/07/20 09:54:12;;;;;;;6.22;1.60;;;23.60;99.90;;;;;;6244893;22;20004;-86
2022/07/20 09:56:49;;;;;;;5.03;2.00;;;23.30;99.90;;;;;;6272550;22;20004;-87
2022/07/20 09:59:16;;;;;;;3.92;1.60;;;23.30;99.90;;;;;;6245095;22;20010;-88
2022/07/20 10:01:48;;;;;;;4.18;1.83;;;23.40;99.90;;;;;;6272429;22;19996;-88
2022/07/20 10:04:14;;;;;;;7.50;1.92;;;23.40;99.90;;;;;;6272251;22;20007;-90
2022/07/20 10:06:45;;;;;;;8.27;2.00;;;23.70;99.90;;;;;;6245522;22;20079;-87
2022/07/20 10:09:14;;;;;;;5.53;1.90;;;23.90;99.90;;;;;;6272567;22;20003;-86
2022/07/20 10:11:39;;;;;;;6.15;2.13;;;24.20;99.90;;;;;;6272332;22;20065;-89
2022/07/20 10:14:06;;;;;;;7.68;2.00;;;24.30;99.90;;;;;;6271540;22;20004;-86
2022/07/20 10:16:35;;;;;;;5.25;1.80;;;24.10;99.90;;;;;;6272180;22;20015;-87
2022/07/20 10:19:02;;;;;;;4.32;1.73;;;24.00;99.60;;;;;;6273081;22;20036;-84
2022/07/20 10:21:41;;;;;;;5.13;1.90;;;23.70;99.90;;;;;;6241082;23;20446;-89
2022/07/20 10:24:18;;;;;;;7.35;1.90;;;23.50;99.90;;;;;;6241390;22;20012;-88
2022/07/20 10:26:50;;;;;;;9.13;2.30;;;23.30;99.90;;;;;;6241397;22;20011;-85
2022/07/20 10:29:27;;;;;;;4.85;2.15;;;23.20;99.90;;;;;;6241181;22;19996;-91
2022/07/20 10:31:58;;;;;;;6.20;1.95;;;23.40;99.90;;;;;;6242426;22;20070;-85
2022/07/20 10:34:37;;;;;;;7.72;2.13;;;23.60;99.90;;;;;;6241675;22;19996;-85
2022/07/20 10:37:23;;;;;;;9.50;2.45;;;23.70;99.90;;;;;;6241399;23;20012;-87
2022/07/20 10:39:49;;;;;;;10.05;3.20;;;23.90;99.90;;;;;;6241095;22;19996;-84
2022/07/20 10:42:28;;;;;;;9.00;2.20;;;24.10;99.90;;;;;;6241438;22;20031;-83
2022/07/20 10:44:54;;;;;;;6.40;2.40;;;23.80;99.90;;;;;;6241090;22;20023;-86
2022/07/20 10:47:38;;;;;;;4.53;2.00;;;23.80;99.90;;;;;;6241010;22;20004;-83
2022/07/20 10:50:05;;;;;;;4.00;1.50;;;23.50;99.90;;;;;;6241379;23;20070;-82
2022/07/20 10:52:33;;;;;;;6.68;1.85;;;23.40;99.90;;;;;;6241882;22;20079;-83
2022/07/20 10:54:59;;;;;;;8.27;2.00;;;23.20;99.90;;;;;;6242034;22;20326;-84
2022/07/20 10:57:25;;;;;;;6.28;2.25;;;23.20;99.90;;;;;;6240889;23;20015;-86
2022/07/20 11:00:08;;;;;;;5.70;1.80;;;23.40;99.90;;;;;;6241644;22;20050;-83
2022/07/20 11:02:34;;;;;;;4.90;1.80;;;23.70;99.90;;;;;;6253162;22;20004;-82
2022/07/20 11:05:00;;;;;;;5.80;1.95;;;23.90;99.90;;;;;;6240549;23;20000;-86
2022/07/20 11:07:34;;;;;;;5.90;1.70;;;23.90;97.00;;;;;;6241076;22;20004;-85
2022/07/20 11:10:18;;;;;;;4.72;2.00;;;23.80;98.10;;;;;;6243807;22;20095;-83
2022/07/20 11:12:57;;;;;;;4.70;1.70;;;24.00;99.80;;;;;;6241838;22;20004;-84
2022/07/20 11:15:23;;;;;;;4.90;1.95;;;24.20;98.00;;;;;;6241071;22;20003;-86
2022/07/20 11:17:54;;;;;;;3.03;1.52;;;24.30;92.00;;;;;;6240969;22;20012;-82
2022/07/20 11:20:19;;;;;;;4.93;1.73;;;24.30;91.20;;;;;;6246315;22;20004;-84
2022/07/20 11:22:45;;;;;;;3.42;1.90;;;24.40;91.70;;;;;;6271340;22;20011;-87
2022/07/20 11:25:11;;;;;;;6.85;2.05;;;24.60;90.40;;;;;;6271330;22;20024;-86
2022/07/20 11:27:36;;;;;;;6.78;2.10;;;24.70;91.20;;;;;;6243323;22;20173;-83
2022/07/20 11:30:03;;;;;;;9.50;2.15;;;24.80;91.10;;;;;;6271393;22;20026;-86
2022/07/20 11:32:29;;;;;;;5.95;2.10;;;24.80;91.00;;;;;;6271556;22;20007;-91
2022/07/20 11:34:55;;;;;;;4.43;2.10;;;24.70;90.30;;;;;;6272860;22;20088;-90
2022/07/20 11:37:21;;;;;;;6.97;2.20;;;24.60;89.80;;;;;;6274659;22;20008;-86
2022/07/20 11:39:48;;;;;;;6.85;2.10;;;24.40;90.50;;;;;;6276594;22;20004;-89
2022/07/20 11:42:16;;;;;;;4.40;2.17;;;24.40;91.30;;;;;;6281399;22;20000;-85
2022/07/20 11:45:00;;;;;;;5.65;2.38;;;24.50;91.30;;;;;;6282383;22;19991;-88
2022/07/20 11:47:26;;;;;;;7.50;2.67;;;24.80;86.30;;;;;;6280836;22;20010;-87
2022/07/20 11:50:09;;;;;;;5.75;2.17;;;24.80;86.90;;;;;;6282726;22;20344;-90
2022/07/20 11:52:42;;;;;;;5.68;2.80;;;25.00;88.10;;;;;;6225354;22;20023;-86
2022/07/20 11:55:09;;;;;;;4.78;2.00;;;;;;;;;;6246509;22;20070;-91
2022/07/20 11:57:35;;;;;;;7.97;2.80;;;25.50;82.40;;;;;;6276265;22;20091;-94
2022/07/20 12:00:00;;;;;;;8.00;2.30;;;25.50;85.90;;;;;;6249821;22;20007;-88
2022/07/20 12:02:27;;;;;;;6.10;2.47;;;25.60;78.80;;;;;;6275701;22;20385;-89
2022/07/20 12:04:53;;;;;;;5.75;2.58;;;;;;;;;;6275925;22;20000;-85
2022/07/20 12:10:23;;;;;;;7.63;2.70;;;25.20;79.80;;;;;;6274735;22;20042;-95
2022/07/20 12:13:04;;;;;;;9.43;2.45;;;25.20;79.90;;;;;;6275249;22;20009;-92
2022/07/20 12:15:29;;;;;;;6.68;2.75;;;25.30;81.60;;;;;;6278966;22;20003;-91
2022/07/20 12:17:55;;;;;;;6.45;2.72;;;25.50;78.10;;;;;;6276669;22;20011;-94
2022/07/20 12:20:25;;;;;;;7.57;2.90;;;25.40;75.60;;;;;;6278467;22;20035;-95
2022/07/20 12:22:54;;;;;;;4.50;2.63;;;25.20;75.10;;;;;;6274298;22;20004;-94
2022/07/20 12:25:20;;;;;;;7.20;3.05;;;25.30;78.30;;;;;;6247515;22;20042;-95
2022/07/20 12:27:46;;;;;;;7.40;3.40;;;25.40;77.30;;;;;;6274012;22;20000;-94
2022/07/20 12:30:43;;;;;;;5.22;3.58;;;25.50;77.50;;;;;;6273368;22;20006;-86
2022/07/20 12:33:16;;;;;;;5.63;3.38;;;25.50;77.10;;;;;;6215466;22;20035;-86
2022/07/20 12:35:44;;;;;;;9.40;3.70;;;25.70;83.40;;;;;;6273993;22;19996;-93
2022/07/20 12:38:12;;;;;;;7.97;3.70;;;25.80;76.30;;;;;;6274027;22;20054;-93
2022/07/20 12:40:44;;;;;;;7.63;3.83;;;26.60;77.40;;;;;;6274223;22;20000;-85
2022/07/20 12:43:40;;;;;;;8.07;3.90;;;25.90;73.40;;;;;;6273042;22;20027;-85
2022/07/20 12:46:10;;;;;;;7.30;4.47;;;25.80;71.40;;;;;;6275378;22;19995;-93
2022/07/20 12:48:38;;;;;;;9.05;3.95;;;25.70;70.50;;;;;;6273486;22;19999;-95
2022/07/20 12:51:05;;;;;;;8.00;3.95;;;25.80;73.40;;;;;;6276349;22;19996;-86
2022/07/20 12:53:32;;;;;;;6.40;4.00;;;25.90;71.70;;;;;;6273212;22;20000;-90